Alexander, New York
Current Conditions -  °F | °C
As of 10:54 AM on Friday 21 Nov 2014 (Local Time) from KBUF Reporting Station
Scattered Clouds Scattered Clouds  
Wind Chill: 16°   Ceiling: Unl
Heat Index: 23°   Visibility: 10mi
Dew Point: 15°   Wind: 6mph
Humidity: 72%   Direction: 250°WSW
Pressure: 30.37"   Gusts: NA
Location:  42.9°N, 78.26°W
Report Text: KBUF 211554Z 25005KT 10SM FEW017 SCT032 M05/M09 A3037 RMK AO2 SLP296 MDT CU DSNT NE SW SHSN DSNT E-SE T10501094
Loading
Personal Weather Stations






























Interactive Weather Map New forecast layout! Learn more

10-Day Weather Forecast

Advertisements
Track Severe Weather on mobile